KHUL/HUL METAR and TAF weather

Enter ICAO airport designator
Station Type Date Time Source
KHUL METAR 2019/10/18 10:53 UTC NOAA

KHUL 181053Z AUTO 31007G16KT 10SM -RA FEW010 BKN015 OVC022 04/02 A2933 RMK AO2 RAB26 SLP935 P0001 T00390022


Station Type Date Time Source
KHUL Decoded METAR 2019/10/18 10:53 UTC NOAA

HOULTON INT'L AIRPORT, ME, United States (KHUL) 46-07N 067-48W 150M
Oct 18, 2019 - 06:53 AM EDT / 2019.10.18 1053 UTC
Wind: from the NW (310 degrees) at 8 MPH (7 KT) gusting to 18 MPH (16 KT):0
Visibility: 10 mile(s):0
Sky conditions: overcast
Weather: light rain
Precipitation last hour: 0.01 inches
Temperature: 39.0 F (3.9 C)
Dew Point: 36.0 F (2.2 C)
Relative Humidity: 88%
Pressure (altimeter): 29.33 in. Hg (993 hPa)
ob: KHUL 181053Z AUTO 31007G16KT 10SM -RA FEW010 BKN015 OVC022 04/02 A2933 RMK AO2 RAB26 SLP935 P0001 T00390022
cycle: 11

Station Type Date Time Source
KHUL TAF 2019/10/18 09:06 UTC NOAA

TAF
AMD KHUL 180905Z 1809/1906 30010G20KT 6SM -DZ OVC012
FM181400 30010G22KT P6SM OVC020
FM182000 30010G20KT P6SM BKN035

Example: see airport list